sensor_id;sensor_type;location;lat;lon;timestamp;P1;durP1;ratioP1;P2;durP2;ratioP2
83630;SDS011;73593;52.134;5.426;2024-01-10T00:01:03;4.32;;;2.25;;
83630;SDS011;73593;52.134;5.426;2024-01-10T00:03:30;5.00;;;2.28;;
83630;SDS011;73593;52.134;5.426;2024-01-10T00:05:59;6.57;;;2.17;;
83630;SDS011;73593;52.134;5.426;2024-01-10T00:08:30;5.13;;;1.98;;
83630;SDS011;73593;52.134;5.426;2024-01-10T00:10:59;4.88;;;2.47;;
83630;SDS011;73593;52.134;5.426;2024-01-10T00:13:28;5.68;;;2.10;;
83630;SDS011;73593;52.134;5.426;2024-01-10T00:15:57;4.72;;;2.08;;
83630;SDS011;73593;52.134;5.426;2024-01-10T00:18:25;3.92;;;1.83;;
83630;SDS011;73593;52.134;5.426;2024-01-10T00:20:52;8.18;;;2.47;;
83630;SDS011;73593;52.134;5.426;2024-01-10T00:23:21;4.00;;;2.22;;
83630;SDS011;73593;52.134;5.426;2024-01-10T00:25:50;4.28;;;2.30;;
83630;SDS011;73593;52.134;5.426;2024-01-10T00:28:19;5.10;;;2.50;;
83630;SDS011;73593;52.134;5.426;2024-01-10T00:30:46;5.57;;;2.13;;
83630;SDS011;73593;52.134;5.426;2024-01-10T00:33:14;4.15;;;2.08;;
83630;SDS011;73593;52.134;5.426;2024-01-10T00:35:44;3.78;;;2.20;;
83630;SDS011;73593;52.134;5.426;2024-01-10T00:38:10;4.65;;;2.75;;
83630;SDS011;73593;52.134;5.426;2024-01-10T00:40:37;4.45;;;2.22;;
83630;SDS011;73593;52.134;5.426;2024-01-10T00:43:04;4.90;;;2.28;;
83630;SDS011;73593;52.134;5.426;2024-01-10T00:45:31;9.27;;;2.47;;
83630;SDS011;73593;52.134;5.426;2024-01-10T00:48:00;5.32;;;2.78;;
83630;SDS011;73593;52.134;5.426;2024-01-10T00:50:26;4.03;;;2.60;;
83630;SDS011;73593;52.134;5.426;2024-01-10T00:52:55;4.78;;;2.30;;
83630;SDS011;73593;52.134;5.426;2024-01-10T00:55:22;5.72;;;2.58;;
83630;SDS011;73593;52.134;5.426;2024-01-10T00:57:49;4.78;;;2.00;;
83630;SDS011;73593;52.134;5.426;2024-01-10T01:00:16;4.53;;;2.45;;
83630;SDS011;73593;52.134;5.426;2024-01-10T01:02:43;4.60;;;2.00;;
83630;SDS011;73593;52.134;5.426;2024-01-10T01:05:09;5.13;;;2.55;;
83630;SDS011;73593;52.134;5.426;2024-01-10T01:07:36;3.97;;;2.20;;
83630;SDS011;73593;52.134;5.426;2024-01-10T01:10:04;3.47;;;2.38;;
83630;SDS011;73593;52.134;5.426;2024-01-10T01:12:34;5.78;;;2.45;;
83630;SDS011;73593;52.134;5.426;2024-01-10T01:15:01;4.40;;;2.20;;
83630;SDS011;73593;52.134;5.426;2024-01-10T01:17:28;4.05;;;2.10;;
83630;SDS011;73593;52.134;5.426;2024-01-10T01:19:54;5.93;;;2.38;;
83630;SDS011;73593;52.134;5.426;2024-01-10T01:22:21;4.60;;;2.60;;
83630;SDS011;73593;52.134;5.426;2024-01-10T01:24:47;5.28;;;2.38;;
83630;SDS011;73593;52.134;5.426;2024-01-10T01:27:17;3.95;;;2.05;;
83630;SDS011;73593;52.134;5.426;2024-01-10T01:29:45;3.22;;;2.00;;
83630;SDS011;73593;52.134;5.426;2024-01-10T01:32:12;5.70;;;2.83;;
83630;SDS011;73593;52.134;5.426;2024-01-10T01:34:38;6.03;;;2.70;;
83630;SDS011;73593;52.134;5.426;2024-01-10T01:37:05;5.10;;;2.30;;
83630;SDS011;73593;52.134;5.426;2024-01-10T01:42:01;4.72;;;2.03;;
83630;SDS011;73593;52.134;5.426;2024-01-10T01:44:30;4.45;;;2.22;;
83630;SDS011;73593;52.134;5.426;2024-01-10T01:46:58;5.07;;;2.28;;
83630;SDS011;73593;52.134;5.426;2024-01-10T01:49:25;4.45;;;1.90;;
83630;SDS011;73593;52.134;5.426;2024-01-10T01:51:55;5.15;;;2.28;;
83630;SDS011;73593;52.134;5.426;2024-01-10T01:54:22;5.00;;;2.53;;
83630;SDS011;73593;52.134;5.426;2024-01-10T01:56:51;4.55;;;2.17;;
83630;SDS011;73593;52.134;5.426;2024-01-10T01:59:19;4.88;;;2.17;;
83630;SDS011;73593;52.134;5.426;2024-01-10T02:01:48;5.13;;;2.08;;
83630;SDS011;73593;52.134;5.426;2024-01-10T02:04:16;4.60;;;2.50;;
83630;SDS011;73593;52.134;5.426;2024-01-10T02:06:43;4.20;;;2.17;;
83630;SDS011;73593;52.134;5.426;2024-01-10T02:11:39;3.75;;;1.92;;
83630;SDS011;73593;52.134;5.426;2024-01-10T02:14:06;5.15;;;1.95;;
83630;SDS011;73593;52.134;5.426;2024-01-10T02:19:16;5.03;;;2.00;;
83630;SDS011;73593;52.134;5.426;2024-01-10T02:21:46;6.60;;;2.58;;
83630;SDS011;73593;52.134;5.426;2024-01-10T02:24:13;4.40;;;2.20;;
83630;SDS011;73593;52.134;5.426;2024-01-10T02:26:43;3.80;;;1.95;;
83630;SDS011;73593;52.134;5.426;2024-01-10T02:29:10;4.97;;;2.95;;
83630;SDS011;73593;52.134;5.426;2024-01-10T02:31:36;4.35;;;1.85;;
83630;SDS011;73593;52.134;5.426;2024-01-10T02:34:05;5.40;;;2.60;;
83630;SDS011;73593;52.134;5.426;2024-01-10T02:36:32;5.82;;;2.40;;
83630;SDS011;73593;52.134;5.426;2024-01-10T02:38:59;4.32;;;2.17;;
83630;SDS011;73593;52.134;5.426;2024-01-10T02:41:28;4.30;;;2.35;;
83630;SDS011;73593;52.134;5.426;2024-01-10T02:43:54;5.00;;;2.85;;
83630;SDS011;73593;52.134;5.426;2024-01-10T02:46:25;3.75;;;2.30;;
83630;SDS011;73593;52.134;5.426;2024-01-10T02:48:54;3.97;;;2.08;;
83630;SDS011;73593;52.134;5.426;2024-01-10T02:51:26;6.57;;;3.35;;
83630;SDS011;73593;52.134;5.426;2024-01-10T02:53:56;4.68;;;2.13;;
83630;SDS011;73593;52.134;5.426;2024-01-10T02:56:22;4.93;;;2.40;;
83630;SDS011;73593;52.134;5.426;2024-01-10T03:01:18;8.23;;;3.05;;
83630;SDS011;73593;52.134;5.426;2024-01-10T03:03:47;7.32;;;2.95;;
83630;SDS011;73593;52.134;5.426;2024-01-10T03:06:13;5.38;;;2.60;;
83630;SDS011;73593;52.134;5.426;2024-01-10T03:08:40;5.40;;;2.53;;
83630;SDS011;73593;52.134;5.426;2024-01-10T03:11:07;7.28;;;3.00;;
83630;SDS011;73593;52.134;5.426;2024-01-10T03:13:33;5.38;;;2.38;;
83630;SDS011;73593;52.134;5.426;2024-01-10T03:16:00;4.55;;;2.70;;
83630;SDS011;73593;52.134;5.426;2024-01-10T03:18:27;5.93;;;2.88;;
83630;SDS011;73593;52.134;5.426;2024-01-10T03:20:54;5.45;;;2.88;;
83630;SDS011;73593;52.134;5.426;2024-01-10T03:23:22;4.80;;;2.20;;
83630;SDS011;73593;52.134;5.426;2024-01-10T03:25:48;4.50;;;2.70;;
83630;SDS011;73593;52.134;5.426;2024-01-10T03:28:15;4.53;;;2.30;;
83630;SDS011;73593;52.134;5.426;2024-01-10T03:30:44;8.18;;;3.05;;
83630;SDS011;73593;52.134;5.426;2024-01-10T03:33:11;7.35;;;2.50;;
83630;SDS011;73593;52.134;5.426;2024-01-10T03:35:41;8.82;;;3.03;;
83630;SDS011;73593;52.134;5.426;2024-01-10T03:38:08;6.28;;;2.30;;
83630;SDS011;73593;52.134;5.426;2024-01-10T03:40:35;5.20;;;2.58;;
83630;SDS011;73593;52.134;5.426;2024-01-10T03:43:01;4.30;;;2.33;;
83630;SDS011;73593;52.134;5.426;2024-01-10T03:45:28;5.53;;;2.92;;
83630;SDS011;73593;52.134;5.426;2024-01-10T03:47:56;5.57;;;3.10;;
83630;SDS011;73593;52.134;5.426;2024-01-10T03:50:22;4.70;;;2.58;;
83630;SDS011;73593;52.134;5.426;2024-01-10T03:52:52;5.20;;;2.55;;
83630;SDS011;73593;52.134;5.426;2024-01-10T03:55:19;6.28;;;2.10;;
83630;SDS011;73593;52.134;5.426;2024-01-10T04:00:14;6.50;;;2.80;;
83630;SDS011;73593;52.134;5.426;2024-01-10T04:02:44;4.97;;;2.28;;
83630;SDS011;73593;52.134;5.426;2024-01-10T04:05:11;7.63;;;2.63;;
83630;SDS011;73593;52.134;5.426;2024-01-10T04:07:40;5.40;;;2.53;;
83630;SDS011;73593;52.134;5.426;2024-01-10T04:10:10;4.72;;;2.60;;
83630;SDS011;73593;52.134;5.426;2024-01-10T04:12:40;5.90;;;2.95;;
83630;SDS011;73593;52.134;5.426;2024-01-10T04:15:07;3.85;;;2.30;;
83630;SDS011;73593;52.134;5.426;2024-01-10T04:17:34;4.63;;;2.63;;
83630;SDS011;73593;52.134;5.426;2024-01-10T04:20:01;3.78;;;1.85;;
83630;SDS011;73593;52.134;5.426;2024-01-10T04:22:29;6.18;;;2.58;;
83630;SDS011;73593;52.134;5.426;2024-01-10T04:25:00;7.10;;;2.67;;
83630;SDS011;73593;52.134;5.426;2024-01-10T04:27:28;5.40;;;2.10;;
83630;SDS011;73593;52.134;5.426;2024-01-10T04:29:54;4.97;;;2.17;;
83630;SDS011;73593;52.134;5.426;2024-01-10T04:32:21;4.95;;;2.67;;
83630;SDS011;73593;52.134;5.426;2024-01-10T04:34:50;5.13;;;2.50;;
83630;SDS011;73593;52.134;5.426;2024-01-10T04:37:19;4.40;;;2.50;;
83630;SDS011;73593;52.134;5.426;2024-01-10T04:39:46;4.47;;;2.35;;
83630;SDS011;73593;52.134;5.426;2024-01-10T04:42:13;4.38;;;2.22;;
83630;SDS011;73593;52.134;5.426;2024-01-10T04:44:40;6.07;;;2.28;;
83630;SDS011;73593;52.134;5.426;2024-01-10T04:47:07;6.38;;;2.80;;
83630;SDS011;73593;52.134;5.426;2024-01-10T04:49:38;5.50;;;2.95;;
83630;SDS011;73593;52.134;5.426;2024-01-10T04:52:05;5.80;;;2.80;;
83630;SDS011;73593;52.134;5.426;2024-01-10T04:54:31;4.38;;;3.13;;
83630;SDS011;73593;52.134;5.426;2024-01-10T04:56:58;5.28;;;2.45;;
83630;SDS011;73593;52.134;5.426;2024-01-10T04:59:25;7.63;;;3.17;;
83630;SDS011;73593;52.134;5.426;2024-01-10T05:01:51;6.75;;;3.10;;
83630;SDS011;73593;52.134;5.426;2024-01-10T05:04:18;8.02;;;2.83;;
83630;SDS011;73593;52.134;5.426;2024-01-10T05:06:45;4.93;;;2.75;;
83630;SDS011;73593;52.134;5.426;2024-01-10T05:09:12;5.32;;;2.05;;
83630;SDS011;73593;52.134;5.426;2024-01-10T05:11:39;6.38;;;2.65;;
83630;SDS011;73593;52.134;5.426;2024-01-10T05:14:09;5.40;;;2.47;;
83630;SDS011;73593;52.134;5.426;2024-01-10T05:16:35;4.03;;;2.33;;
83630;SDS011;73593;52.134;5.426;2024-01-10T05:19:02;6.68;;;2.72;;
83630;SDS011;73593;52.134;5.426;2024-01-10T05:21:34;4.93;;;2.90;;
83630;SDS011;73593;52.134;5.426;2024-01-10T05:24:01;6.45;;;2.80;;
83630;SDS011;73593;52.134;5.426;2024-01-10T05:26:30;6.47;;;3.25;;
83630;SDS011;73593;52.134;5.426;2024-01-10T05:28:56;5.18;;;2.60;;
83630;SDS011;73593;52.134;5.426;2024-01-10T05:31:26;6.20;;;2.83;;
83630;SDS011;73593;52.134;5.426;2024-01-10T05:33:53;4.75;;;2.30;;
83630;SDS011;73593;52.134;5.426;2024-01-10T05:36:22;6.35;;;2.83;;
83630;SDS011;73593;52.134;5.426;2024-01-10T05:38:50;6.57;;;3.05;;
83630;SDS011;73593;52.134;5.426;2024-01-10T05:41:16;6.03;;;3.40;;
83630;SDS011;73593;52.134;5.426;2024-01-10T05:43:43;5.60;;;2.95;;
83630;SDS011;73593;52.134;5.426;2024-01-10T05:46:10;6.85;;;3.90;;
83630;SDS011;73593;52.134;5.426;2024-01-10T05:48:39;6.60;;;2.67;;
83630;SDS011;73593;52.134;5.426;2024-01-10T05:51:06;8.43;;;3.10;;
83630;SDS011;73593;52.134;5.426;2024-01-10T05:53:32;6.13;;;2.33;;
83630;SDS011;73593;52.134;5.426;2024-01-10T05:55:59;4.95;;;2.42;;
83630;SDS011;73593;52.134;5.426;2024-01-10T05:58:27;8.73;;;3.55;;
83630;SDS011;73593;52.134;5.426;2024-01-10T06:00:56;5.72;;;3.17;;
83630;SDS011;73593;52.134;5.426;2024-01-10T06:03:23;6.18;;;3.35;;
83630;SDS011;73593;52.134;5.426;2024-01-10T06:08:18;6.18;;;2.60;;
83630;SDS011;73593;52.134;5.426;2024-01-10T06:10:45;4.72;;;2.08;;
83630;SDS011;73593;52.134;5.426;2024-01-10T06:13:11;6.53;;;3.42;;
83630;SDS011;73593;52.134;5.426;2024-01-10T06:15:40;7.93;;;2.95;;
83630;SDS011;73593;52.134;5.426;2024-01-10T06:18:07;7.43;;;3.42;;
83630;SDS011;73593;52.134;5.426;2024-01-10T06:20:39;6.05;;;3.08;;
83630;SDS011;73593;52.134;5.426;2024-01-10T06:23:06;7.35;;;3.13;;
83630;SDS011;73593;52.134;5.426;2024-01-10T06:25:32;6.50;;;2.80;;
83630;SDS011;73593;52.134;5.426;2024-01-10T06:30:28;4.40;;;2.80;;
83630;SDS011;73593;52.134;5.426;2024-01-10T06:32:54;5.30;;;2.95;;
83630;SDS011;73593;52.134;5.426;2024-01-10T06:35:21;6.40;;;3.42;;
83630;SDS011;73593;52.134;5.426;2024-01-10T06:37:48;8.75;;;4.63;;
83630;SDS011;73593;52.134;5.426;2024-01-10T06:40:15;5.75;;;2.70;;
83630;SDS011;73593;52.134;5.426;2024-01-10T06:42:44;5.43;;;2.10;;
83630;SDS011;73593;52.134;5.426;2024-01-10T06:45:13;5.65;;;3.67;;
83630;SDS011;73593;52.134;5.426;2024-01-10T06:47:43;8.43;;;3.55;;
83630;SDS011;73593;52.134;5.426;2024-01-10T06:50:09;5.88;;;2.65;;
83630;SDS011;73593;52.134;5.426;2024-01-10T06:52:36;7.03;;;3.60;;
83630;SDS011;73593;52.134;5.426;2024-01-10T06:55:06;6.15;;;2.90;;
83630;SDS011;73593;52.134;5.426;2024-01-10T06:57:34;7.55;;;3.80;;
83630;SDS011;73593;52.134;5.426;2024-01-10T07:00:00;6.40;;;3.03;;
83630;SDS011;73593;52.134;5.426;2024-01-10T07:02:33;7.90;;;2.78;;
83630;SDS011;73593;52.134;5.426;2024-01-10T07:05:03;6.20;;;3.53;;
83630;SDS011;73593;52.134;5.426;2024-01-10T07:07:33;7.70;;;3.30;;
83630;SDS011;73593;52.134;5.426;2024-01-10T07:10:02;9.57;;;3.53;;
83630;SDS011;73593;52.134;5.426;2024-01-10T07:12:32;8.20;;;3.63;;
83630;SDS011;73593;52.134;5.426;2024-01-10T07:15:00;6.70;;;3.40;;
83630;SDS011;73593;52.134;5.426;2024-01-10T07:17:29;7.53;;;3.55;;
83630;SDS011;73593;52.134;5.426;2024-01-10T07:19:56;7.05;;;3.45;;
83630;SDS011;73593;52.134;5.426;2024-01-10T07:22:23;6.20;;;2.92;;
83630;SDS011;73593;52.134;5.426;2024-01-10T07:24:53;8.68;;;5.63;;
83630;SDS011;73593;52.134;5.426;2024-01-10T07:27:19;9.02;;;3.50;;
83630;SDS011;73593;52.134;5.426;2024-01-10T07:29:46;5.50;;;2.67;;
83630;SDS011;73593;52.134;5.426;2024-01-10T07:32:13;7.63;;;2.58;;
83630;SDS011;73593;52.134;5.426;2024-01-10T07:34:42;8.43;;;3.47;;
83630;SDS011;73593;52.134;5.426;2024-01-10T07:37:08;10.48;;;2.92;;
83630;SDS011;73593;52.134;5.426;2024-01-10T07:39:36;10.80;;;3.33;;
83630;SDS011;73593;52.134;5.426;2024-01-10T07:42:04;6.10;;;2.95;;
83630;SDS011;73593;52.134;5.426;2024-01-10T07:44:33;11.65;;;5.45;;
83630;SDS011;73593;52.134;5.426;2024-01-10T07:47:00;6.40;;;3.63;;
83630;SDS011;73593;52.134;5.426;2024-01-10T07:49:30;7.55;;;2.92;;
83630;SDS011;73593;52.134;5.426;2024-01-10T07:51:58;6.22;;;3.35;;
83630;SDS011;73593;52.134;5.426;2024-01-10T07:54:25;5.57;;;2.90;;
83630;SDS011;73593;52.134;5.426;2024-01-10T07:56:52;8.60;;;3.28;;
83630;SDS011;73593;52.134;5.426;2024-01-10T07:59:20;6.50;;;3.20;;
83630;SDS011;73593;52.134;5.426;2024-01-10T08:01:54;6.82;;;2.70;;
83630;SDS011;73593;52.134;5.426;2024-01-10T08:04:25;6.57;;;3.17;;
83630;SDS011;73593;52.134;5.426;2024-01-10T08:06:53;7.60;;;2.75;;
83630;SDS011;73593;52.134;5.426;2024-01-10T08:09:20;6.13;;;3.15;;
83630;SDS011;73593;52.134;5.426;2024-01-10T08:11:52;5.05;;;2.38;;
83630;SDS011;73593;52.134;5.426;2024-01-10T08:14:22;6.90;;;2.70;;
83630;SDS011;73593;52.134;5.426;2024-01-10T08:16:48;8.00;;;2.83;;
83630;SDS011;73593;52.134;5.426;2024-01-10T08:19:15;6.30;;;2.92;;
83630;SDS011;73593;52.134;5.426;2024-01-10T08:21:42;8.35;;;3.08;;
83630;SDS011;73593;52.134;5.426;2024-01-10T08:24:09;7.80;;;3.40;;
83630;SDS011;73593;52.134;5.426;2024-01-10T08:26:35;5.18;;;3.28;;
83630;SDS011;73593;52.134;5.426;2024-01-10T08:29:04;19.90;;;7.10;;
83630;SDS011;73593;52.134;5.426;2024-01-10T08:31:33;13.50;;;5.38;;
83630;SDS011;73593;52.134;5.426;2024-01-10T08:36:29;7.53;;;3.65;;
83630;SDS011;73593;52.134;5.426;2024-01-10T08:38:56;8.73;;;4.20;;
83630;SDS011;73593;52.134;5.426;2024-01-10T08:41:22;12.13;;;3.22;;
83630;SDS011;73593;52.134;5.426;2024-01-10T08:43:51;6.80;;;3.05;;
83630;SDS011;73593;52.134;5.426;2024-01-10T08:46:18;7.47;;;3.65;;
83630;SDS011;73593;52.134;5.426;2024-01-10T08:48:45;5.43;;;2.78;;
83630;SDS011;73593;52.134;5.426;2024-01-10T08:51:14;7.25;;;3.53;;
83630;SDS011;73593;52.134;5.426;2024-01-10T08:53:43;8.15;;;3.25;;
83630;SDS011;73593;52.134;5.426;2024-01-10T08:56:15;8.20;;;3.10;;
83630;SDS011;73593;52.134;5.426;2024-01-10T08:58:42;9.30;;;3.20;;
83630;SDS011;73593;52.134;5.426;2024-01-10T09:01:14;7.00;;;3.15;;
83630;SDS011;73593;52.134;5.426;2024-01-10T09:03:41;7.35;;;3.08;;
83630;SDS011;73593;52.134;5.426;2024-01-10T09:08:38;7.07;;;2.95;;
83630;SDS011;73593;52.134;5.426;2024-01-10T09:11:06;11.73;;;3.28;;
83630;SDS011;73593;52.134;5.426;2024-01-10T09:13:32;8.75;;;3.42;;
83630;SDS011;73593;52.134;5.426;2024-01-10T09:16:00;8.18;;;3.67;;
83630;SDS011;73593;52.134;5.426;2024-01-10T09:18:27;7.45;;;3.33;;
83630;SDS011;73593;52.134;5.426;2024-01-10T09:20:56;6.60;;;3.40;;
83630;SDS011;73593;52.134;5.426;2024-01-10T09:23:23;7.90;;;3.35;;
83630;SDS011;73593;52.134;5.426;2024-01-10T09:25:50;7.45;;;2.72;;
83630;SDS011;73593;52.134;5.426;2024-01-10T09:28:17;11.32;;;3.17;;
83630;SDS011;73593;52.134;5.426;2024-01-10T09:30:44;8.45;;;3.67;;
83630;SDS011;73593;52.134;5.426;2024-01-10T09:33:10;9.95;;;4.43;;
83630;SDS011;73593;52.134;5.426;2024-01-10T09:35:37;7.10;;;2.95;;
83630;SDS011;73593;52.134;5.426;2024-01-10T09:38:04;5.53;;;2.92;;
83630;SDS011;73593;52.134;5.426;2024-01-10T09:40:33;8.80;;;3.45;;
83630;SDS011;73593;52.134;5.426;2024-01-10T09:43:00;6.22;;;3.05;;
83630;SDS011;73593;52.134;5.426;2024-01-10T09:45:27;8.63;;;3.90;;
83630;SDS011;73593;52.134;5.426;2024-01-10T09:47:58;5.78;;;3.58;;
83630;SDS011;73593;52.134;5.426;2024-01-10T09:50:25;10.60;;;4.05;;
83630;SDS011;73593;52.134;5.426;2024-01-10T09:53:05;7.53;;;3.70;;
83630;SDS011;73593;52.134;5.426;2024-01-10T09:55:38;7.75;;;3.78;;
83630;SDS011;73593;52.134;5.426;2024-01-10T09:58:05;8.82;;;3.78;;
83630;SDS011;73593;52.134;5.426;2024-01-10T10:00:34;8.63;;;3.70;;
83630;SDS011;73593;52.134;5.426;2024-01-10T10:03:09;10.02;;;4.20;;
83630;SDS011;73593;52.134;5.426;2024-01-10T10:05:39;20.63;;;9.25;;
83630;SDS011;73593;52.134;5.426;2024-01-10T10:08:10;8.98;;;4.13;;
83630;SDS011;73593;52.134;5.426;2024-01-10T10:10:38;6.22;;;3.28;;
83630;SDS011;73593;52.134;5.426;2024-01-10T10:13:23;10.80;;;4.38;;
83630;SDS011;73593;52.134;5.426;2024-01-10T10:15:57;8.48;;;3.78;;
83630;SDS011;73593;52.134;5.426;2024-01-10T10:18:27;8.68;;;4.50;;
83630;SDS011;73593;52.134;5.426;2024-01-10T10:21:16;8.70;;;4.25;;
83630;SDS011;73593;52.134;5.426;2024-01-10T10:23:56;6.15;;;3.60;;
83630;SDS011;73593;52.134;5.426;2024-01-10T10:26:27;6.80;;;3.45;;
83630;SDS011;73593;52.134;5.426;2024-01-10T10:28:56;10.40;;;3.85;;
83630;SDS011;73593;52.134;5.426;2024-01-10T10:31:23;8.18;;;3.97;;
83630;SDS011;73593;52.134;5.426;2024-01-10T10:33:51;8.65;;;4.00;;
83630;SDS011;73593;52.134;5.426;2024-01-10T10:36:21;7.15;;;3.28;;
83630;SDS011;73593;52.134;5.426;2024-01-10T10:38:49;9.88;;;4.38;;
83630;SDS011;73593;52.134;5.426;2024-01-10T10:41:16;7.47;;;3.80;;
83630;SDS011;73593;52.134;5.426;2024-01-10T10:43:46;10.82;;;3.90;;
83630;SDS011;73593;52.134;5.426;2024-01-10T10:46:16;12.00;;;4.88;;
83630;SDS011;73593;52.134;5.426;2024-01-10T10:48:48;11.25;;;4.32;;
83630;SDS011;73593;52.134;5.426;2024-01-10T10:53:44;9.80;;;4.32;;
83630;SDS011;73593;52.134;5.426;2024-01-10T10:56:14;9.98;;;4.53;;
83630;SDS011;73593;52.134;5.426;2024-01-10T10:58:44;8.23;;;5.28;;
83630;SDS011;73593;52.134;5.426;2024-01-10T11:01:13;10.18;;;4.28;;
83630;SDS011;73593;52.134;5.426;2024-01-10T11:03:44;6.15;;;3.53;;
83630;SDS011;73593;52.134;5.426;2024-01-10T11:06:16;7.18;;;3.80;;
83630;SDS011;73593;52.134;5.426;2024-01-10T11:08:52;9.10;;;4.43;;
83630;SDS011;73593;52.134;5.426;2024-01-10T11:25:37;10.52;;;3.83;;
83630;SDS011;73593;52.134;5.426;2024-01-10T11:28:06;10.88;;;4.65;;
83630;SDS011;73593;52.134;5.426;2024-01-10T11:30:35;8.18;;;3.97;;
83630;SDS011;73593;52.134;5.426;2024-01-10T11:33:19;8.10;;;4.05;;
83630;SDS011;73593;52.134;5.426;2024-01-10T11:41:23;9.30;;;4.53;;
83630;SDS011;73593;52.134;5.426;2024-01-10T11:49:14;7.13;;;3.78;;
83630;SDS011;73593;52.134;5.426;2024-01-10T11:51:43;8.65;;;3.95;;
83630;SDS011;73593;52.134;5.426;2024-01-10T11:57:07;11.07;;;4.47;;
83630;SDS011;73593;52.134;5.426;2024-01-10T11:59:40;10.93;;;4.85;;
83630;SDS011;73593;52.134;5.426;2024-01-10T12:02:14;9.15;;;3.88;;
83630;SDS011;73593;52.134;5.426;2024-01-10T12:04:42;10.32;;;4.03;;
83630;SDS011;73593;52.134;5.426;2024-01-10T12:07:14;14.98;;;5.72;;
83630;SDS011;73593;52.134;5.426;2024-01-10T12:09:42;14.73;;;5.50;;
83630;SDS011;73593;52.134;5.426;2024-01-10T12:12:12;10.20;;;4.00;;
83630;SDS011;73593;52.134;5.426;2024-01-10T12:14:42;11.73;;;4.63;;
83630;SDS011;73593;52.134;5.426;2024-01-10T12:17:11;9.43;;;4.32;;
83630;SDS011;73593;52.134;5.426;2024-01-10T12:19:38;9.15;;;4.47;;
83630;SDS011;73593;52.134;5.426;2024-01-10T12:22:05;10.57;;;4.68;;
83630;SDS011;73593;52.134;5.426;2024-01-10T12:24:34;10.15;;;4.32;;
83630;SDS011;73593;52.134;5.426;2024-01-10T12:27:04;11.68;;;3.95;;
83630;SDS011;73593;52.134;5.426;2024-01-10T12:29:31;7.78;;;4.15;;
83630;SDS011;73593;52.134;5.426;2024-01-10T12:31:59;9.88;;;4.50;;
83630;SDS011;73593;52.134;5.426;2024-01-10T12:34:26;8.98;;;4.53;;
83630;SDS011;73593;52.134;5.426;2024-01-10T12:36:54;11.65;;;4.65;;
83630;SDS011;73593;52.134;5.426;2024-01-10T12:39:21;10.07;;;3.47;;
83630;SDS011;73593;52.134;5.426;2024-01-10T12:41:50;9.75;;;3.92;;
83630;SDS011;73593;52.134;5.426;2024-01-10T12:44:17;10.02;;;4.65;;
83630;SDS011;73593;52.134;5.426;2024-01-10T12:46:50;10.70;;;3.90;;
83630;SDS011;73593;52.134;5.426;2024-01-10T12:49:22;11.57;;;4.65;;
83630;SDS011;73593;52.134;5.426;2024-01-10T12:51:51;7.88;;;3.65;;
83630;SDS011;73593;52.134;5.426;2024-01-10T12:54:18;9.30;;;3.63;;
83630;SDS011;73593;52.134;5.426;2024-01-10T12:56:50;8.85;;;3.63;;
83630;SDS011;73593;52.134;5.426;2024-01-10T12:59:17;8.05;;;3.63;;
83630;SDS011;73593;52.134;5.426;2024-01-10T13:01:44;8.88;;;4.28;;
83630;SDS011;73593;52.134;5.426;2024-01-10T13:04:11;7.97;;;4.20;;
83630;SDS011;73593;52.134;5.426;2024-01-10T13:06:40;9.15;;;4.20;;
83630;SDS011;73593;52.134;5.426;2024-01-10T13:09:07;10.75;;;4.20;;
83630;SDS011;73593;52.134;5.426;2024-01-10T13:11:36;14.05;;;6.32;;
83630;SDS011;73593;52.134;5.426;2024-01-10T13:14:03;14.90;;;6.78;;
83630;SDS011;73593;52.134;5.426;2024-01-10T13:16:30;7.90;;;4.20;;
83630;SDS011;73593;52.134;5.426;2024-01-10T13:19:16;8.38;;;3.92;;
83630;SDS011;73593;52.134;5.426;2024-01-10T13:21:43;12.13;;;4.50;;
83630;SDS011;73593;52.134;5.426;2024-01-10T13:24:10;10.77;;;4.10;;
83630;SDS011;73593;52.134;5.426;2024-01-10T13:26:37;9.93;;;3.95;;
83630;SDS011;73593;52.134;5.426;2024-01-10T13:29:03;8.63;;;3.53;;
83630;SDS011;73593;52.134;5.426;2024-01-10T13:31:30;9.30;;;4.28;;
83630;SDS011;73593;52.134;5.426;2024-01-10T13:33:59;11.00;;;4.28;;
83630;SDS011;73593;52.134;5.426;2024-01-10T13:36:26;7.95;;;3.22;;
83630;SDS011;73593;52.134;5.426;2024-01-10T13:38:52;9.40;;;4.07;;
83630;SDS011;73593;52.134;5.426;2024-01-10T13:41:21;8.98;;;4.70;;
83630;SDS011;73593;52.134;5.426;2024-01-10T13:43:48;8.10;;;4.20;;
83630;SDS011;73593;52.134;5.426;2024-01-10T13:46:15;9.77;;;4.43;;
83630;SDS011;73593;52.134;5.426;2024-01-10T13:48:43;11.20;;;4.45;;
83630;SDS011;73593;52.134;5.426;2024-01-10T13:51:12;11.13;;;4.35;;
83630;SDS011;73593;52.134;5.426;2024-01-10T13:53:41;8.23;;;4.72;;
83630;SDS011;73593;52.134;5.426;2024-01-10T13:56:07;8.52;;;3.67;;
83630;SDS011;73593;52.134;5.426;2024-01-10T13:58:37;10.32;;;4.65;;
83630;SDS011;73593;52.134;5.426;2024-01-10T14:01:04;11.35;;;4.82;;
83630;SDS011;73593;52.134;5.426;2024-01-10T14:03:30;10.45;;;4.80;;
83630;SDS011;73593;52.134;5.426;2024-01-10T14:06:02;8.30;;;3.85;;
83630;SDS011;73593;52.134;5.426;2024-01-10T14:08:29;8.80;;;4.07;;
83630;SDS011;73593;52.134;5.426;2024-01-10T14:10:55;10.35;;;4.18;;
83630;SDS011;73593;52.134;5.426;2024-01-10T14:13:22;8.75;;;3.70;;
83630;SDS011;73593;52.134;5.426;2024-01-10T14:15:51;8.68;;;3.90;;
83630;SDS011;73593;52.134;5.426;2024-01-10T14:18:21;9.00;;;5.03;;
83630;SDS011;73593;52.134;5.426;2024-01-10T14:20:48;8.77;;;4.07;;
83630;SDS011;73593;52.134;5.426;2024-01-10T14:23:15;8.80;;;5.00;;
83630;SDS011;73593;52.134;5.426;2024-01-10T14:25:43;9.82;;;6.85;;
83630;SDS011;73593;52.134;5.426;2024-01-10T14:28:10;9.07;;;4.80;;
83630;SDS011;73593;52.134;5.426;2024-01-10T14:30:37;9.77;;;3.83;;
83630;SDS011;73593;52.134;5.426;2024-01-10T14:33:07;8.40;;;3.80;;
83630;SDS011;73593;52.134;5.426;2024-01-10T14:35:34;8.23;;;4.53;;
83630;SDS011;73593;52.134;5.426;2024-01-10T14:38:01;9.38;;;4.30;;
83630;SDS011;73593;52.134;5.426;2024-01-10T14:40:28;8.63;;;3.85;;
83630;SDS011;73593;52.134;5.426;2024-01-10T14:42:56;9.00;;;3.50;;
83630;SDS011;73593;52.134;5.426;2024-01-10T14:45:34;9.98;;;3.95;;
83630;SDS011;73593;52.134;5.426;2024-01-10T14:48:02;13.73;;;6.03;;
83630;SDS011;73593;52.134;5.426;2024-01-10T14:50:30;18.50;;;8.48;;
83630;SDS011;73593;52.134;5.426;2024-01-10T14:52:56;9.77;;;4.97;;
83630;SDS011;73593;52.134;5.426;2024-01-10T14:55:26;7.28;;;3.97;;
83630;SDS011;73593;52.134;5.426;2024-01-10T14:57:52;9.50;;;4.53;;
83630;SDS011;73593;52.134;5.426;2024-01-10T15:00:19;9.57;;;4.60;;
83630;SDS011;73593;52.134;5.426;2024-01-10T15:02:46;9.85;;;4.80;;
83630;SDS011;73593;52.134;5.426;2024-01-10T15:05:15;9.77;;;4.60;;
83630;SDS011;73593;52.134;5.426;2024-01-10T15:07:47;9.55;;;3.67;;
83630;SDS011;73593;52.134;5.426;2024-01-10T15:10:14;8.27;;;4.28;;
83630;SDS011;73593;52.134;5.426;2024-01-10T15:12:46;7.97;;;4.50;;
83630;SDS011;73593;52.134;5.426;2024-01-10T15:15:13;10.85;;;3.90;;
83630;SDS011;73593;52.134;5.426;2024-01-10T15:17:40;13.05;;;5.20;;
83630;SDS011;73593;52.134;5.426;2024-01-10T15:20:07;10.50;;;5.35;;
83630;SDS011;73593;52.134;5.426;2024-01-10T15:22:34;8.68;;;4.40;;
83630;SDS011;73593;52.134;5.426;2024-01-10T15:25:04;8.80;;;4.15;;
83630;SDS011;73593;52.134;5.426;2024-01-10T15:27:32;18.23;;;8.70;;
83630;SDS011;73593;52.134;5.426;2024-01-10T15:30:01;10.50;;;4.40;;
83630;SDS011;73593;52.134;5.426;2024-01-10T15:32:42;11.13;;;4.55;;
83630;SDS011;73593;52.134;5.426;2024-01-10T15:35:09;10.75;;;5.03;;
83630;SDS011;73593;52.134;5.426;2024-01-10T15:37:36;7.82;;;3.83;;
83630;SDS011;73593;52.134;5.426;2024-01-10T15:40:07;10.02;;;4.47;;
83630;SDS011;73593;52.134;5.426;2024-01-10T15:42:35;8.23;;;4.10;;
83630;SDS011;73593;52.134;5.426;2024-01-10T15:45:01;11.60;;;3.92;;